Time;durP1;ratioP1;P1;durP2;ratioP2;P2;SDS_P1;SDS_P2;PMS_P1;PMS_P2;Temp;Humidity;BMP_temperature;BMP_pressure;BME280_temperature;BME280_humidity;BME280_pressure;Samples;Min_cycle;Max_cycle;Signal;HPM_P1;HPM_P2
2021/06/27 00:01:09;;;;;;;11.32;8.77;;;22.00;99.90;;;;;;5077757;28;20116;-67
2021/06/27 00:03:35;;;;;;;11.65;9.25;;;22.00;99.90;;;;;;5083149;28;20017;-66
2021/06/27 00:06:01;;;;;;;12.55;10.02;;;22.00;99.90;;;;;;5073681;28;20547;-67
2021/06/27 00:08:27;;;;;;;12.30;9.98;;;22.00;99.90;;;;;;5089185;28;20115;-67
2021/06/27 00:10:57;;;;;;;11.70;10.43;;;22.00;99.90;;;;;;5081094;28;20542;-67
2021/06/27 00:13:23;;;;;;;12.30;10.20;;;22.00;99.90;;;;;;5073501;28;20115;-67
2021/06/27 00:15:50;;;;;;;13.55;10.95;;;21.90;99.90;;;;;;5073857;28;20064;-67
2021/06/27 00:18:18;;;;;;;11.77;10.55;;;21.90;99.90;;;;;;5073794;28;20036;-67
2021/06/27 00:20:46;;;;;;;12.25;10.93;;;21.90;99.90;;;;;;5074065;28;20055;-67
2021/06/27 00:23:14;;;;;;;11.55;10.30;;;21.90;99.90;;;;;;5084481;28;20016;-67
2021/06/27 00:25:40;;;;;;;13.90;12.35;;;21.90;99.90;;;;;;5073185;28;20527;-67
2021/06/27 00:28:07;;;;;;;12.73;11.43;;;21.90;99.90;;;;;;5086835;28;20097;-67
2021/06/27 00:30:34;;;;;;;12.95;11.55;;;21.90;99.90;;;;;;5093255;28;20102;-67
2021/06/27 00:33:01;;;;;;;13.02;11.70;;;21.90;99.90;;;;;;5087979;28;20498;-67
2021/06/27 00:35:27;;;;;;;12.95;11.43;;;21.90;99.90;;;;;;5087467;28;20051;-67
2021/06/27 00:37:53;;;;;;;13.70;11.60;;;21.90;99.90;;;;;;5092714;28;20035;-65
2021/06/27 00:40:22;;;;;;;12.88;11.15;;;21.90;99.90;;;;;;5068238;28;20024;-67
2021/06/27 00:42:48;;;;;;;13.75;11.55;;;21.90;99.90;;;;;;5082733;28;20035;-67
2021/06/27 00:45:15;;;;;;;12.45;11.15;;;21.90;99.90;;;;;;5072953;28;20027;-67
2021/06/27 00:47:43;;;;;;;12.57;10.90;;;21.90;99.90;;;;;;5072610;28;20032;-67
2021/06/27 00:50:16;;;;;;;14.73;12.25;;;21.80;99.90;;;;;;5073750;28;20031;-67
2021/06/27 00:52:41;;;;;;;14.20;12.27;;;21.90;99.90;;;;;;5081059;28;20029;-67
2021/06/27 00:55:08;;;;;;;13.00;11.70;;;21.80;99.90;;;;;;5072622;28;20345;-66
2021/06/27 00:57:35;;;;;;;13.05;11.63;;;21.90;99.90;;;;;;5075018;28;20451;-67
2021/06/27 01:00:08;;;;;;;13.48;12.07;;;21.80;99.90;;;;;;5089266;28;20024;-66
2021/06/27 01:02:34;;;;;;;14.00;12.57;;;21.80;99.90;;;;;;5071988;28;20024;-67
2021/06/27 01:05:01;;;;;;;14.57;12.23;;;21.80;99.90;;;;;;5072314;28;20028;-66
2021/06/27 01:07:27;;;;;;;15.73;12.85;;;21.80;99.90;;;;;;5071608;28;20044;-65
2021/06/27 01:09:53;;;;;;;14.05;12.30;;;21.80;99.90;;;;;;5072700;28;20185;-65
2021/06/27 01:12:18;;;;;;;14.85;13.32;;;21.80;99.90;;;;;;5089644;28;20028;-67
2021/06/27 01:14:44;;;;;;;14.43;12.80;;;21.80;99.90;;;;;;5072203;28;20095;-67
2021/06/27 01:17:09;;;;;;;13.93;12.43;;;21.80;99.90;;;;;;5072270;28;20090;-66
2021/06/27 01:19:35;;;;;;;14.23;12.73;;;21.80;99.90;;;;;;5091818;28;20024;-67
2021/06/27 01:22:01;;;;;;;13.98;12.43;;;21.80;99.90;;;;;;5090250;28;20028;-67
2021/06/27 01:24:27;;;;;;;15.27;13.55;;;21.80;99.90;;;;;;5092452;28;20036;-65
2021/06/27 01:26:53;;;;;;;14.73;12.93;;;21.80;99.90;;;;;;5092470;28;20064;-67
2021/06/27 01:29:19;;;;;;;16.42;13.18;;;21.80;99.90;;;;;;5090195;28;20054;-66
2021/06/27 01:31:45;;;;;;;15.07;13.52;;;21.80;99.90;;;;;;5092535;28;20484;-67
2021/06/27 01:34:12;;;;;;;15.00;13.30;;;21.70;99.90;;;;;;5091933;28;20039;-66
2021/06/27 01:36:38;;;;;;;14.82;13.10;;;21.80;99.90;;;;;;5072864;28;20032;-67
2021/06/27 01:39:05;;;;;;;15.63;13.93;;;21.70;99.90;;;;;;5071933;28;20460;-66
2021/06/27 01:41:31;;;;;;;14.43;12.93;;;21.70;99.90;;;;;;5073743;28;20396;-65
2021/06/27 01:43:56;;;;;;;15.48;13.60;;;21.70;99.90;;;;;;5071148;28;20017;-66
2021/06/27 01:46:22;;;;;;;14.38;12.85;;;21.70;99.90;;;;;;5081713;28;20028;-66
2021/06/27 01:48:48;;;;;;;14.35;12.95;;;21.70;99.90;;;;;;5089958;28;20072;-66
2021/06/27 01:51:15;;;;;;;14.23;12.73;;;21.70;99.90;;;;;;5090661;28;20493;-66
2021/06/27 01:53:41;;;;;;;16.10;13.55;;;21.70;99.90;;;;;;5071456;28;20490;-66
2021/06/27 01:56:07;;;;;;;15.25;13.65;;;21.70;99.90;;;;;;5071595;28;20094;-66
2021/06/27 01:58:52;;;;;;;14.75;12.85;;;21.70;99.90;;;;;;5071304;28;20477;-66
2021/06/27 02:01:18;;;;;;;15.77;14.18;;;21.70;99.90;;;;;;5071848;28;20366;-66
2021/06/27 02:03:46;;;;;;;14.98;13.32;;;21.70;99.90;;;;;;5071340;28;20024;-66
2021/06/27 02:06:12;;;;;;;14.65;13.15;;;21.70;99.90;;;;;;5071422;28;20097;-66
2021/06/27 02:08:40;;;;;;;16.58;13.13;;;21.60;99.90;;;;;;5071293;28;20500;-65
2021/06/27 02:11:09;;;;;;;16.05;13.68;;;21.70;99.90;;;;;;5075622;28;20107;-65
2021/06/27 02:13:35;;;;;;;14.88;13.38;;;21.70;99.90;;;;;;5089380;28;20032;-66
2021/06/27 02:16:01;;;;;;;15.55;13.82;;;21.60;99.90;;;;;;5091257;28;20028;-66
2021/06/27 02:18:33;;;;;;;14.85;13.23;;;21.60;99.90;;;;;;5090025;28;20020;-65
2021/06/27 02:21:04;;;;;;;16.23;13.73;;;21.60;99.90;;;;;;5090368;28;20423;-66
2021/06/27 02:23:30;;;;;;;15.73;14.02;;;21.60;99.90;;;;;;5070976;28;20028;-66
2021/06/27 02:25:57;;;;;;;15.82;14.23;;;21.60;99.90;;;;;;5086806;28;20452;-66
2021/06/27 02:28:23;;;;;;;16.75;15.00;;;21.60;99.90;;;;;;5090969;28;20085;-66
2021/06/27 02:30:50;;;;;;;16.65;14.88;;;21.60;99.90;;;;;;5091470;28;20426;-66
2021/06/27 02:33:16;;;;;;;18.98;15.45;;;21.60;99.90;;;;;;5091768;28;20026;-67
2021/06/27 02:35:41;;;;;;;16.27;14.63;;;21.60;99.90;;;;;;5091507;28;20106;-67
2021/06/27 02:38:07;;;;;;;17.33;15.48;;;21.60;99.90;;;;;;5090908;28;20028;-67
2021/06/27 02:40:33;;;;;;;17.80;15.68;;;21.60;99.90;;;;;;5089098;28;20081;-67
2021/06/27 02:42:59;;;;;;;19.17;17.05;;;21.60;99.90;;;;;;5089702;28;20032;-67
2021/06/27 02:45:25;;;;;;;18.55;16.27;;;21.60;99.90;;;;;;5091171;28;20024;-67
2021/06/27 02:47:51;;;;;;;19.02;16.85;;;21.60;99.90;;;;;;5091022;28;20032;-67
2021/06/27 02:50:17;;;;;;;19.95;17.10;;;21.50;99.90;;;;;;5076265;28;20028;-66
2021/06/27 02:52:43;;;;;;;19.45;16.95;;;21.50;99.90;;;;;;5075410;28;20021;-66
2021/06/27 02:55:10;;;;;;;20.42;18.05;;;21.50;99.90;;;;;;5074428;28;20033;-66
2021/06/27 02:57:38;;;;;;;20.50;18.30;;;21.50;99.90;;;;;;5095209;28;20032;-66
2021/06/27 03:00:07;;;;;;;19.63;17.58;;;21.50;99.90;;;;;;5093557;28;20025;-66
2021/06/27 03:02:33;;;;;;;19.17;17.05;;;21.50;99.90;;;;;;5094417;28;20055;-66
2021/06/27 03:04:59;;;;;;;18.75;16.75;;;21.50;99.90;;;;;;5089213;28;20439;-67
2021/06/27 03:07:25;;;;;;;18.48;16.27;;;21.50;99.90;;;;;;5094453;28;20036;-67
2021/06/27 03:09:50;;;;;;;18.65;16.75;;;21.50;99.90;;;;;;5094583;28;20445;-66
2021/06/27 03:12:16;;;;;;;19.30;17.23;;;21.50;99.90;;;;;;5095354;28;20032;-67
2021/06/27 03:14:42;;;;;;;19.30;17.00;;;21.50;99.90;;;;;;5094416;28;20048;-66
2021/06/27 03:17:07;;;;;;;19.52;17.52;;;21.50;99.90;;;;;;5094898;28;20028;-66
2021/06/27 03:19:33;;;;;;;22.17;18.25;;;21.50;99.90;;;;;;5092546;28;20078;-65
2021/06/27 03:21:58;;;;;;;20.02;17.58;;;21.50;99.90;;;;;;5077399;28;20489;-67
2021/06/27 03:24:24;;;;;;;20.48;18.10;;;21.50;99.90;;;;;;5074237;28;20035;-66
2021/06/27 03:26:50;;;;;;;20.02;17.95;;;21.40;99.90;;;;;;5074560;28;20032;-66
2021/06/27 03:29:15;;;;;;;21.67;18.40;;;21.40;99.90;;;;;;5074432;28;20582;-66
2021/06/27 03:31:41;;;;;;;21.10;18.88;;;21.30;99.90;;;;;;5087158;28;20472;-66
2021/06/27 03:34:07;;;;;;;21.33;18.92;;;21.30;99.90;;;;;;5078052;28;20093;-67
2021/06/27 03:36:32;;;;;;;22.05;19.67;;;21.30;99.90;;;;;;5076650;28;20039;-65
2021/06/27 03:41:54;;;;;;;22.08;19.25;;;21.30;99.90;;;;;;5081267;28;20391;-66
2021/06/27 03:44:21;;;;;;;21.95;18.77;;;21.30;99.90;;;;;;5093940;28;20032;-66
2021/06/27 03:46:46;;;;;;;21.20;18.45;;;21.30;99.90;;;;;;5094747;28;20032;-65
2021/06/27 03:49:12;;;;;;;21.92;19.20;;;21.30;99.90;;;;;;5093966;28;20039;-66
2021/06/27 03:51:38;;;;;;;24.45;19.80;;;21.30;99.90;;;;;;5078183;28;20060;-65
2021/06/27 03:54:04;;;;;;;22.40;19.05;;;21.30;99.90;;;;;;5074054;28;20059;-65
2021/06/27 03:56:30;;;;;;;20.38;18.00;;;21.30;99.90;;;;;;5089973;28;20028;-66
2021/06/27 03:58:55;;;;;;;20.27;17.95;;;21.30;99.90;;;;;;5094174;28;20380;-66
2021/06/27 04:01:21;;;;;;;20.65;18.45;;;21.30;99.90;;;;;;5090504;28;20036;-65
2021/06/27 04:03:47;;;;;;;21.05;18.92;;;21.30;99.90;;;;;;5076029;28;20085;-64
2021/06/27 04:06:13;;;;;;;21.15;18.95;;;21.30;99.90;;;;;;5091651;28;20032;-67
2021/06/27 04:08:39;;;;;;;20.70;18.50;;;21.30;99.90;;;;;;5072988;28;20044;-66
2021/06/27 04:11:05;;;;;;;20.80;18.10;;;21.20;99.90;;;;;;5073428;28;20032;-66
2021/06/27 04:13:33;;;;;;;21.33;19.13;;;21.20;99.90;;;;;;5073309;28;20028;-66
2021/06/27 04:16:00;;;;;;;21.25;18.80;;;21.20;99.90;;;;;;5077608;28;20400;-66
2021/06/27 04:18:26;;;;;;;21.63;19.08;;;21.20;99.90;;;;;;5073165;28;20028;-66
2021/06/27 04:20:53;;;;;;;20.15;17.95;;;21.20;99.90;;;;;;5080820;28;20020;-65
2021/06/27 04:23:20;;;;;;;20.48;18.27;;;21.20;99.90;;;;;;5077722;28;20037;-65
2021/06/27 04:25:45;;;;;;;21.10;18.90;;;21.20;99.90;;;;;;5073585;28;20017;-66
2021/06/27 04:28:12;;;;;;;21.48;19.20;;;21.20;99.90;;;;;;5073419;28;20106;-65
2021/06/27 04:30:39;;;;;;;19.95;17.27;;;21.20;99.90;;;;;;5085153;28;20028;-65
2021/06/27 04:33:06;;;;;;;20.60;18.40;;;21.20;99.90;;;;;;5093059;28;20028;-66
2021/06/27 04:35:35;;;;;;;21.48;18.73;;;21.20;99.90;;;;;;5076935;28;20418;-65
2021/06/27 04:38:08;;;;;;;21.48;18.25;;;21.20;99.90;;;;;;5093046;28;20391;-65
2021/06/27 04:40:37;;;;;;;19.83;17.73;;;21.20;99.90;;;;;;5091233;28;20047;-65
2021/06/27 04:43:05;;;;;;;19.63;17.55;;;21.20;99.90;;;;;;5092680;28;20032;-65
2021/06/27 04:45:31;;;;;;;20.70;18.50;;;21.20;99.90;;;;;;5093060;28;20069;-66
2021/06/27 04:47:57;;;;;;;20.15;18.00;;;21.20;99.90;;;;;;5092754;28;20050;-65
2021/06/27 04:50:23;;;;;;;21.85;18.60;;;21.20;99.90;;;;;;5085617;28;20416;-65
2021/06/27 04:52:52;;;;;;;21.20;18.90;;;21.10;99.90;;;;;;5076923;28;20107;-65
2021/06/27 04:55:20;;;;;;;22.08;19.67;;;21.10;99.90;;;;;;5079899;28;20059;-66
2021/06/27 04:57:46;;;;;;;20.75;17.95;;;21.10;99.90;;;;;;5092932;28;20028;-65
2021/06/27 05:00:13;;;;;;;20.20;17.35;;;21.20;99.90;;;;;;5079515;28;20027;-65
2021/06/27 05:02:39;;;;;;;20.95;18.75;;;21.10;99.90;;;;;;5073438;28;20388;-65
2021/06/27 05:05:06;;;;;;;20.85;18.65;;;21.10;99.90;;;;;;5080293;28;20115;-65
2021/06/27 05:07:32;;;;;;;21.48;19.00;;;21.10;99.90;;;;;;5073224;28;20044;-65
2021/06/27 05:09:58;;;;;;;20.85;18.55;;;21.10;99.90;;;;;;5087509;28;20032;-65
2021/06/27 05:12:25;;;;;;;22.30;18.65;;;21.10;99.90;;;;;;5092059;28;20376;-65
2021/06/27 05:14:51;;;;;;;21.40;19.10;;;21.10;99.90;;;;;;5091054;28;20032;-65
2021/06/27 05:17:16;;;;;;;22.00;19.10;;;21.10;99.90;;;;;;5093107;28;20024;-65
2021/06/27 05:19:42;;;;;;;20.45;18.35;;;21.10;99.90;;;;;;5086287;28;20484;-66
2021/06/27 05:22:08;;;;;;;19.70;17.60;;;21.10;99.90;;;;;;5075101;28;20135;-65
2021/06/27 05:24:33;;;;;;;21.17;18.23;;;21.10;99.90;;;;;;5071944;28;20029;-65
2021/06/27 05:26:59;;;;;;;22.10;19.60;;;21.10;99.90;;;;;;5072119;28;20123;-66
2021/06/27 05:29:25;;;;;;;20.85;18.65;;;21.10;99.90;;;;;;5072320;28;20023;-67
2021/06/27 05:31:50;;;;;;;20.80;18.40;;;21.10;99.90;;;;;;5072556;28;20442;-65
2021/06/27 05:34:16;;;;;;;22.27;19.52;;;21.10;99.90;;;;;;5077308;28;20474;-66
2021/06/27 05:36:42;;;;;;;21.75;19.40;;;21.10;99.90;;;;;;5091514;28;20028;-66
2021/06/27 05:39:09;;;;;;;19.55;17.52;;;21.10;99.90;;;;;;5092276;28;20020;-66
2021/06/27 05:41:35;;;;;;;20.30;18.20;;;21.10;99.90;;;;;;5079604;28;20029;-66
2021/06/27 05:44:02;;;;;;;24.67;20.63;;;21.10;99.90;;;;;;5071877;28;20024;-66
2021/06/27 05:46:28;;;;;;;22.52;18.90;;;21.10;99.90;;;;;;5071453;28;20499;-67
2021/06/27 05:48:53;;;;;;;21.13;18.92;;;21.10;99.90;;;;;;5071399;28;20028;-65
2021/06/27 05:51:19;;;;;;;21.63;18.80;;;21.10;99.90;;;;;;5074371;28;20036;-66
2021/06/27 05:53:45;;;;;;;21.10;18.90;;;21.10;99.90;;;;;;5071483;28;20027;-66
2021/06/27 05:56:13;;;;;;;21.02;18.80;;;21.10;99.90;;;;;;5071278;28;20476;-66
2021/06/27 05:58:41;;;;;;;21.80;19.40;;;21.00;99.90;;;;;;5071562;28;20036;-65
2021/06/27 06:01:11;;;;;;;20.92;18.73;;;21.10;99.90;;;;;;5071694;28;20107;-66
2021/06/27 06:03:37;;;;;;;21.48;19.10;;;21.10;99.90;;;;;;5071507;28;20480;-65
2021/06/27 06:06:04;;;;;;;21.15;18.95;;;21.10;99.90;;;;;;5073607;28;20032;-66
2021/06/27 06:08:30;;;;;;;21.08;18.83;;;21.10;99.90;;;;;;5071118;28;20052;-66
2021/06/27 06:10:56;;;;;;;20.08;17.98;;;21.10;99.90;;;;;;5071350;28;20020;-65
2021/06/27 06:13:21;;;;;;;19.85;17.75;;;21.10;99.90;;;;;;5089971;28;20032;-66
2021/06/27 06:15:47;;;;;;;21.35;18.08;;;21.10;99.90;;;;;;5080763;28;20107;-65
2021/06/27 06:18:13;;;;;;;19.17;17.08;;;21.10;99.90;;;;;;5071420;28;20067;-66
2021/06/27 06:20:38;;;;;;;19.63;17.50;;;21.10;99.90;;;;;;5079631;28;20020;-66
2021/06/27 06:23:04;;;;;;;22.38;17.88;;;21.10;99.90;;;;;;5073453;28;20484;-66
2021/06/27 06:25:30;;;;;;;21.88;18.83;;;21.10;99.90;;;;;;5071338;28;20033;-67
2021/06/27 06:27:56;;;;;;;19.63;17.63;;;21.10;99.90;;;;;;5071206;28;20037;-65
2021/06/27 06:30:21;;;;;;;19.60;17.50;;;21.10;99.90;;;;;;5069142;28;20089;-66
2021/06/27 06:32:47;;;;;;;19.88;17.77;;;21.10;99.90;;;;;;5071788;28;20029;-67
2021/06/27 06:35:13;;;;;;;19.08;17.08;;;21.10;99.90;;;;;;5078059;28;20031;-66
2021/06/27 06:37:38;;;;;;;19.20;17.15;;;21.20;99.90;;;;;;5091260;28;20032;-65
2021/06/27 06:40:05;;;;;;;19.95;17.75;;;21.20;99.90;;;;;;5084061;28;20032;-66
2021/06/27 06:42:31;;;;;;;20.13;17.80;;;21.20;99.90;;;;;;5090837;28;20035;-67
2021/06/27 06:44:57;;;;;;;21.10;18.38;;;21.20;99.90;;;;;;5091457;28;20020;-66
2021/06/27 06:47:23;;;;;;;20.63;18.42;;;21.20;99.90;;;;;;5091062;28;20036;-66
2021/06/27 06:49:49;;;;;;;18.45;16.42;;;21.20;99.90;;;;;;5072293;28;20026;-66
2021/06/27 06:52:14;;;;;;;20.23;17.38;;;21.20;99.90;;;;;;5070342;28;20516;-66
2021/06/27 06:54:40;;;;;;;19.08;17.08;;;21.20;99.90;;;;;;5088190;28;20028;-66
2021/06/27 06:57:06;;;;;;;18.80;16.80;;;21.20;99.90;;;;;;5091269;28;20052;-66
2021/06/27 06:59:32;;;;;;;19.13;16.83;;;21.20;99.90;;;;;;5088532;28;20365;-66
2021/06/27 07:01:58;;;;;;;21.02;17.15;;;21.30;99.90;;;;;;5071051;28;20036;-66
2021/06/27 07:04:24;;;;;;;18.13;16.23;;;21.30;99.90;;;;;;5070600;28;20082;-65
2021/06/27 07:06:50;;;;;;;18.42;16.45;;;21.30;99.90;;;;;;5080267;28;20493;-65
2021/06/27 07:09:15;;;;;;;18.27;16.27;;;21.30;99.90;;;;;;5070269;28;20035;-65
2021/06/27 07:11:41;;;;;;;17.10;15.13;;;21.30;99.90;;;;;;5070615;28;20112;-64
2021/06/27 07:14:07;;;;;;;17.17;15.40;;;21.30;99.90;;;;;;5070838;28;20078;-64
2021/06/27 07:16:33;;;;;;;18.55;16.42;;;21.30;99.90;;;;;;5069749;28;20078;-65
2021/06/27 07:18:59;;;;;;;23.85;17.10;;;21.30;99.90;;;;;;5070674;28;20508;-65
2021/06/27 07:21:27;;;;;;;23.35;17.42;;;21.30;99.90;;;;;;5069536;28;20071;-66
2021/06/27 07:23:53;;;;;;;19.92;17.75;;;21.40;99.90;;;;;;5070561;28;20033;-66
2021/06/27 07:26:18;;;;;;;23.10;19.23;;;21.40;99.90;;;;;;5071108;28;20462;-66
2021/06/27 07:28:44;;;;;;;19.20;17.25;;;21.30;99.90;;;;;;5070575;28;20083;-66
2021/06/27 07:31:10;;;;;;;23.63;19.33;;;21.30;99.90;;;;;;5073557;28;20036;-65
2021/06/27 07:33:36;;;;;;;22.35;18.77;;;21.30;99.90;;;;;;5070120;28;20111;-66
2021/06/27 07:36:02;;;;;;;21.33;18.92;;;21.40;99.90;;;;;;5069970;28;20036;-65
2021/06/27 07:38:27;;;;;;;21.65;18.63;;;21.40;99.90;;;;;;5070306;28;20178;-66
2021/06/27 07:40:55;;;;;;;21.65;19.23;;;21.40;99.90;;;;;;5069710;28;20488;-64
2021/06/27 07:43:21;;;;;;;23.88;21.40;;;21.40;99.90;;;;;;5070166;28;20033;-65
2021/06/27 07:45:46;;;;;;;22.70;20.20;;;21.40;99.90;;;;;;5074368;28;20020;-66
2021/06/27 07:48:12;;;;;;;23.25;20.73;;;21.40;99.90;;;;;;5073891;28;20120;-64
2021/06/27 07:50:38;;;;;;;22.75;20.08;;;21.40;99.90;;;;;;5073200;28;20067;-68
2021/06/27 07:53:04;;;;;;;22.98;20.45;;;21.40;99.90;;;;;;5073195;28;20430;-65
2021/06/27 07:55:30;;;;;;;22.85;20.38;;;21.50;99.90;;;;;;5073312;28;20025;-65
2021/06/27 07:57:56;;;;;;;23.45;21.00;;;21.50;99.90;;;;;;5073799;28;20029;-65
2021/06/27 08:00:22;;;;;;;29.25;25.75;;;21.50;99.90;;;;;;5073138;28;20028;-66
2021/06/27 08:02:48;;;;;;;28.63;23.80;;;21.50;99.90;;;;;;5086641;28;20028;-66
2021/06/27 08:05:14;;;;;;;26.85;23.42;;;21.50;99.90;;;;;;5091492;28;20383;-65
2021/06/27 08:07:40;;;;;;;35.47;29.27;;;21.50;99.90;;;;;;5072803;28;20415;-66
2021/06/27 08:10:07;;;;;;;37.40;31.25;;;21.50;99.90;;;;;;5073712;28;20067;-66
2021/06/27 08:12:33;;;;;;;31.45;26.80;;;21.60;99.90;;;;;;5073156;28;20036;-66
2021/06/27 08:14:59;;;;;;;33.17;28.30;;;21.60;99.90;;;;;;5073220;28;20029;-66
2021/06/27 08:17:25;;;;;;;34.03;29.00;;;21.60;99.90;;;;;;5073578;28;20017;-66
2021/06/27 08:19:50;;;;;;;30.67;26.73;;;21.60;99.90;;;;;;5072703;28;20032;-66
2021/06/27 08:22:16;;;;;;;34.33;28.30;;;21.60;99.90;;;;;;5073228;28;20434;-66
2021/06/27 08:24:42;;;;;;;32.17;28.75;;;21.60;99.90;;;;;;5072865;28;20028;-66
2021/06/27 08:27:09;;;;;;;33.55;29.60;;;21.60;99.90;;;;;;5073185;28;20113;-66
2021/06/27 08:29:36;;;;;;;35.28;30.23;;;21.60;99.90;;;;;;5072614;28;20027;-66
2021/06/27 08:32:02;;;;;;;33.95;30.13;;;21.60;99.90;;;;;;5080915;28;20109;-66
2021/06/27 08:34:28;;;;;;;33.55;29.35;;;21.60;99.90;;;;;;5093167;28;20469;-65
2021/06/27 08:36:53;;;;;;;31.13;26.80;;;21.60;99.90;;;;;;5093479;28;20020;-66
2021/06/27 08:39:19;;;;;;;37.40;29.75;;;21.60;99.90;;;;;;5076641;28;20094;-68
2021/06/27 08:41:45;;;;;;;33.53;29.30;;;21.60;99.90;;;;;;5072825;28;20487;-67
2021/06/27 08:44:14;;;;;;;32.42;28.30;;;21.70;99.90;;;;;;5073023;28;20020;-67
2021/06/27 08:46:44;;;;;;;31.00;27.67;;;21.70;99.90;;;;;;5072593;28;20036;-68
2021/06/27 08:49:11;;;;;;;32.55;27.60;;;21.70;99.90;;;;;;5072309;28;20379;-67
2021/06/27 08:51:39;;;;;;;31.33;27.75;;;21.70;99.90;;;;;;5071660;28;20020;-67
2021/06/27 08:54:10;;;;;;;30.35;25.90;;;21.70;99.90;;;;;;5071661;28;20090;-65
2021/06/27 08:56:37;;;;;;;28.00;24.92;;;21.70;99.90;;;;;;5075193;28;20136;-67
2021/06/27 08:59:03;;;;;;;26.40;23.42;;;21.70;99.90;;;;;;5071724;28;20031;-67
2021/06/27 09:01:32;;;;;;;23.65;21.15;;;21.80;99.90;;;;;;5072194;28;20115;-67
2021/06/27 09:03:58;;;;;;;25.55;21.17;;;21.70;99.90;;;;;;5072376;28;20085;-67
2021/06/27 09:06:40;;;;;;;24.30;20.15;;;21.80;99.90;;;;;;5071459;28;20041;-66
2021/06/27 09:09:09;;;;;;;22.10;19.50;;;21.80;99.90;;;;;;5072203;28;20392;-67
2021/06/27 09:11:35;;;;;;;21.70;19.50;;;21.80;99.90;;;;;;5065379;28;20090;-68
2021/06/27 09:14:02;;;;;;;20.98;18.65;;;21.80;99.90;;;;;;5072163;28;20029;-68
2021/06/27 09:16:28;;;;;;;21.83;19.45;;;21.80;99.90;;;;;;5070845;28;20028;-68
2021/06/27 09:19:02;;;;;;;22.15;18.80;;;21.80;99.90;;;;;;5071965;28;20024;-68
2021/06/27 09:21:28;;;;;;;22.58;18.88;;;21.80;99.90;;;;;;5075025;28;20024;-68
2021/06/27 09:23:54;;;;;;;19.60;17.52;;;21.80;99.90;;;;;;5071502;28;20032;-68
2021/06/27 09:26:32;;;;;;;17.80;16.00;;;21.80;99.90;;;;;;5070266;28;20025;-68
2021/06/27 09:28:59;;;;;;;18.70;16.80;;;21.80;99.90;;;;;;5070166;28;20055;-68
2021/06/27 09:31:39;;;;;;;18.30;16.25;;;21.90;99.90;;;;;;5069844;28;20469;-68
2021/06/27 09:34:08;;;;;;;18.27;16.30;;;21.80;99.90;;;;;;5071914;28;20400;-68
2021/06/27 09:36:38;;;;;;;19.98;16.05;;;21.80;99.90;;;;;;5070453;28;20029;-68
2021/06/27 09:39:09;;;;;;;18.05;15.57;;;21.90;99.90;;;;;;5071877;28;20020;-68
2021/06/27 09:41:36;;;;;;;17.73;15.23;;;21.80;99.90;;;;;;5071766;28;20075;-68
2021/06/27 09:44:08;;;;;;;16.60;15.00;;;21.90;99.90;;;;;;5072050;28;20024;-68
2021/06/27 09:46:48;;;;;;;15.90;14.25;;;21.90;99.90;;;;;;5071434;28;20457;-68
2021/06/27 09:49:34;;;;;;;16.30;14.60;;;21.90;99.90;;;;;;5071521;28;20035;-68
2021/06/27 09:52:07;;;;;;;15.38;13.82;;;21.80;99.90;;;;;;5071306;28;20037;-68
2021/06/27 09:54:34;;;;;;;17.75;14.52;;;21.90;99.90;;;;;;5069657;28;20042;-68
2021/06/27 09:57:00;;;;;;;16.10;14.40;;;21.90;99.90;;;;;;5071641;28;20020;-68
2021/06/27 09:59:37;;;;;;;16.48;13.75;;;21.90;99.90;;;;;;5071403;28;20029;-68
2021/06/27 10:02:03;;;;;;;14.77;13.30;;;21.90;99.90;;;;;;5071769;28;20051;-68
2021/06/27 10:04:31;;;;;;;14.77;13.23;;;21.90;99.90;;;;;;5070631;28;20108;-68
2021/06/27 10:06:59;;;;;;;14.63;13.13;;;21.90;99.90;;;;;;5070271;28;20028;-68
2021/06/27 10:09:31;;;;;;;14.25;12.75;;;21.90;99.90;;;;;;5071246;28;20056;-68
2021/06/27 10:12:01;;;;;;;14.45;13.05;;;22.00;99.90;;;;;;5071590;28;20033;-68
2021/06/27 10:14:32;;;;;;;14.05;12.75;;;22.00;99.90;;;;;;5071403;28;20021;-68
2021/06/27 10:16:59;;;;;;;13.80;12.40;;;22.00;99.90;;;;;;5071676;28;20056;-68
2021/06/27 10:19:26;;;;;;;13.65;12.32;;;22.00;99.90;;;;;;5071122;28;20380;-68
2021/06/27 10:21:56;;;;;;;13.50;12.15;;;22.00;99.90;;;;;;5071551;28;20025;-68
2021/06/27 10:24:22;;;;;;;13.35;11.98;;;22.00;99.90;;;;;;5071421;28;20103;-68
2021/06/27 10:26:48;;;;;;;13.50;12.07;;;22.00;99.90;;;;;;5071668;28;20028;-68
2021/06/27 10:29:16;;;;;;;13.52;12.05;;;22.00;99.90;;;;;;5071356;28;20059;-68
2021/06/27 10:31:42;;;;;;;13.48;11.85;;;22.00;99.90;;;;;;5071174;28;20020;-68
2021/06/27 10:34:08;;;;;;;13.10;11.85;;;22.10;99.90;;;;;;5071556;28;20028;-68
2021/06/27 10:36:37;;;;;;;12.77;11.57;;;22.10;99.90;;;;;;5071086;28;20469;-68
2021/06/27 10:39:14;;;;;;;12.52;11.30;;;22.10;99.90;;;;;;5071258;28;20021;-68
2021/06/27 10:41:50;;;;;;;11.82;10.48;;;22.10;99.90;;;;;;5071087;28;20039;-68
2021/06/27 10:44:18;;;;;;;12.70;11.40;;;22.10;99.90;;;;;;5070370;28;20443;-68
2021/06/27 10:46:49;;;;;;;13.30;10.57;;;22.10;99.90;;;;;;5070891;28;20084;-68
2021/06/27 10:49:30;;;;;;;11.73;10.63;;;22.10;99.90;;;;;;5071093;28;20493;-68
2021/06/27 10:52:09;;;;;;;11.48;10.30;;;22.10;99.90;;;;;;5071135;28;20113;-68
2021/06/27 10:54:36;;;;;;;11.70;10.60;;;22.20;99.90;;;;;;5071138;28;20017;-68
2021/06/27 10:57:12;;;;;;;11.65;10.55;;;22.20;99.90;;;;;;5071190;28;20060;-68
2021/06/27 10:59:53;;;;;;;11.02;9.95;;;22.20;99.90;;;;;;5071043;28;20024;-68
2021/06/27 11:02:22;;;;;;;11.50;10.30;;;22.30;99.90;;;;;;5070083;28;20029;-68
2021/06/27 11:04:51;;;;;;;10.82;9.82;;;22.20;99.90;;;;;;5071190;28;20465;-68
2021/06/27 11:07:32;;;;;;;11.30;10.20;;;22.30;99.90;;;;;;5071188;28;20060;-68
2021/06/27 11:10:16;;;;;;;10.60;9.60;;;22.30;99.90;;;;;;5070817;28;20032;-68
2021/06/27 11:13:00;;;;;;;10.48;9.48;;;22.30;99.90;;;;;;5070719;28;20024;-68
2021/06/27 11:15:33;;;;;;;10.15;9.20;;;22.30;99.90;;;;;;5069399;28;20529;-68
2021/06/27 11:18:04;;;;;;;11.35;9.52;;;22.30;99.90;;;;;;5074734;28;20022;-68
2021/06/27 11:20:33;;;;;;;10.70;9.57;;;22.30;99.90;;;;;;5073635;28;20491;-68
2021/06/27 11:22:59;;;;;;;10.68;9.63;;;22.30;99.90;;;;;;5074350;28;20401;-68
2021/06/27 11:25:47;;;;;;;10.50;9.40;;;22.30;99.90;;;;;;5074243;28;20023;-68
2021/06/27 11:28:19;;;;;;;10.38;9.48;;;22.40;99.90;;;;;;5074361;28;20024;-67
2021/06/27 11:30:45;;;;;;;10.10;9.20;;;22.40;99.90;;;;;;5074478;28;20066;-68
2021/06/27 11:33:25;;;;;;;10.60;9.50;;;22.30;99.90;;;;;;5074299;28;20024;-67
2021/06/27 11:35:59;;;;;;;9.73;8.82;;;22.40;99.90;;;;;;5074271;28;20028;-68
2021/06/27 11:38:36;;;;;;;10.20;9.25;;;22.40;99.90;;;;;;5074283;28;20119;-68
2021/06/27 11:41:04;;;;;;;9.75;8.93;;;22.40;99.90;;;;;;5074098;28;20413;-68
2021/06/27 11:43:56;;;;;;;9.93;9.02;;;22.40;99.90;;;;;;5074093;28;20106;-68
2021/06/27 11:46:42;;;;;;;9.90;8.90;;;22.40;99.90;;;;;;5073775;28;20099;-68
2021/06/27 11:49:13;;;;;;;9.43;8.63;;;22.40;99.90;;;;;;5073877;28;20530;-68
2021/06/27 11:51:45;;;;;;;9.23;8.43;;;22.40;99.90;;;;;;5073851;28;20039;-68
2021/06/27 11:54:13;;;;;;;9.88;8.90;;;22.50;99.90;;;;;;5074241;28;20028;-68
2021/06/27 11:57:00;;;;;;;8.60;7.85;;;22.50;99.90;;;;;;5073931;28;20028;-68
2021/06/27 11:59:28;;;;;;;9.27;8.38;;;22.50;99.90;;;;;;5073724;28;20024;-68
2021/06/27 12:02:09;;;;;;;9.18;8.30;;;22.50;99.90;;;;;;5073848;28;20035;-68
2021/06/27 12:04:49;;;;;;;9.40;8.55;;;22.50;99.90;;;;;;5073472;28;20458;-68
2021/06/27 12:07:35;;;;;;;9.02;8.23;;;22.50;99.90;;;;;;5074084;28;20434;-68
2021/06/27 12:10:20;;;;;;;8.90;8.10;;;22.50;99.90;;;;;;5073673;28;20119;-68
2021/06/27 12:13:05;;;;;;;9.80;8.80;;;22.50;99.90;;;;;;5073606;28;20033;-68
2021/06/27 12:15:36;;;;;;;8.95;8.20;;;22.50;99.90;;;;;;5073316;28;20032;-68
2021/06/27 12:18:15;;;;;;;9.23;8.30;;;22.50;99.90;;;;;;5073613;28;20024;-68
2021/06/27 12:20:46;;;;;;;8.93;8.13;;;22.60;99.90;;;;;;5073276;28;20104;-68
2021/06/27 12:23:14;;;;;;;8.95;8.15;;;22.60;99.90;;;;;;5073563;28;20017;-67
2021/06/27 12:25:44;;;;;;;9.25;8.35;;;22.60;99.90;;;;;;5073110;28;20024;-67
2021/06/27 12:28:16;;;;;;;8.90;8.15;;;22.60;99.90;;;;;;5072553;28;20093;-68
2021/06/27 12:30:47;;;;;;;9.38;8.48;;;22.60;99.90;;;;;;5073000;28;20376;-68
2021/06/27 12:33:25;;;;;;;8.77;7.97;;;22.60;99.90;;;;;;5073323;28;20028;-68
2021/06/27 12:36:00;;;;;;;9.18;8.32;;;22.60;99.90;;;;;;5073308;28;20021;-68